createdAt,value
2019-05-11T00:00:41.463Z,101198.08
2019-05-11T00:03:09.908Z,101197.27
2019-05-11T00:05:38.491Z,101202.06
2019-05-11T00:08:07.015Z,101204.23
2019-05-11T00:10:35.687Z,101198.24
2019-05-11T00:13:04.108Z,101202.16
2019-05-11T00:15:32.560Z,101198.91
2019-05-11T00:18:01.062Z,101202.35
2019-05-11T00:20:29.568Z,101197.06
2019-05-11T00:22:58.518Z,101194.70
2019-05-11T00:25:26.940Z,101201.25
2019-05-11T00:27:55.527Z,101197.86
2019-05-11T00:30:24.192Z,101199.50
2019-05-11T00:32:52.622Z,101191.15
2019-05-11T00:35:21.049Z,101197.36
2019-05-11T00:37:49.654Z,101196.31
2019-05-11T00:40:18.544Z,101188.66
2019-05-11T00:42:46.969Z,101184.34
2019-05-11T00:45:15.708Z,101182.96
2019-05-11T00:47:44.142Z,101184.56
2019-05-11T00:50:14.238Z,101180.59
2019-05-11T00:52:42.685Z,101182.27
2019-05-11T00:55:11.192Z,101180.47
2019-05-11T00:57:39.628Z,101187.27
2019-05-11T01:00:08.908Z,101186.30
2019-05-11T01:02:37.367Z,101187.84
2019-05-11T01:05:07.849Z,101178.42
2019-05-11T01:07:36.542Z,101182.39
2019-05-11T01:10:06.894Z,101170.42
2019-05-11T01:12:35.319Z,101169.32
2019-05-11T01:15:04.347Z,101169.61
2019-05-11T01:17:32.859Z,101163.94
2019-05-11T01:20:01.308Z,101160.59
2019-05-11T01:22:29.876Z,101157.60
2019-05-11T01:24:58.309Z,101170.48
2019-05-11T01:27:26.744Z,101174.80
2019-05-11T01:29:55.730Z,101177.44
2019-05-11T01:32:24.162Z,101173.13
2019-05-11T01:34:52.586Z,101170.77
2019-05-11T01:37:21.208Z,101169.66
2019-05-11T01:39:49.632Z,101171.53
2019-05-11T01:42:18.063Z,101175.08
2019-05-11T01:44:46.638Z,101168.75
2019-05-11T01:47:15.238Z,101172.37
2019-05-11T01:49:43.663Z,101180.30
2019-05-11T01:52:12.689Z,101173.69
2019-05-11T01:54:41.127Z,101171.39
2019-05-11T01:57:09.698Z,101175.36
2019-05-11T01:59:38.135Z,101167.58
2019-05-11T02:02:06.570Z,101178.94
2019-05-11T02:04:34.993Z,101167.95
2019-05-11T02:07:03.580Z,101173.63
2019-05-11T02:09:32.058Z,101162.17
2019-05-11T02:12:00.534Z,101168.58
2019-05-11T02:14:29.022Z,101168.36
2019-05-11T02:16:57.803Z,101162.72
2019-05-11T02:19:26.237Z,101157.71
2019-05-11T02:21:54.855Z,101158.33
2019-05-11T02:24:23.647Z,101162.45
2019-05-11T02:26:52.076Z,101166.88
2019-05-11T02:29:21.139Z,101163.62
2019-05-11T02:31:49.557Z,101166.88
2019-05-11T02:34:17.982Z,101165.22
2019-05-11T02:36:47.148Z,101180.41
2019-05-11T02:39:15.659Z,101175.47
2019-05-11T02:41:44.113Z,101169.83
2019-05-11T02:44:12.870Z,101176.09
2019-05-11T02:46:41.361Z,101182.34
2019-05-11T02:49:09.775Z,101180.67
2019-05-11T02:51:40.179Z,101181.30
2019-05-11T02:54:10.656Z,101182.73
2019-05-11T02:56:39.081Z,101188.52
2019-05-11T02:59:07.525Z,101188.52
2019-05-11T03:01:35.952Z,101194.52
2019-05-11T03:04:04.389Z,101200.49
2019-05-11T03:06:32.808Z,101187.98
2019-05-11T03:09:01.617Z,101187.98
2019-05-11T03:11:30.052Z,101183.67
2019-05-11T03:13:58.563Z,101184.29
2019-05-11T03:16:26.999Z,101190.27
2019-05-11T03:18:55.417Z,101191.09
2019-05-11T03:21:23.898Z,101187.67
2019-05-11T03:23:52.690Z,101191.02
2019-05-11T03:26:21.228Z,101188.38
2019-05-11T03:28:50.001Z,101190.67
2019-05-11T03:31:18.483Z,101179.70
2019-05-11T03:33:47.015Z,101187.20
2019-05-11T03:36:15.428Z,101186.16
2019-05-11T03:38:43.848Z,101192.41
2019-05-11T03:41:12.645Z,101191.09
2019-05-11T03:43:41.546Z,101190.04
2019-05-11T03:46:09.986Z,101192.60
2019-05-11T03:48:38.406Z,101194.70
2019-05-11T03:51:06.883Z,101203.44
2019-05-11T03:53:35.313Z,101208.72
2019-05-11T03:56:03.756Z,101214.00
2019-05-11T03:58:32.327Z,101219.02
2019-05-11T04:01:00.757Z,101222.36
2019-05-11T04:03:29.428Z,101219.09
2019-05-11T04:05:57.914Z,101225.44
2019-05-11T04:08:26.335Z,101230.37
2019-05-11T04:10:54.788Z,101231.69
2019-05-11T04:13:23.304Z,101239.97
2019-05-11T04:15:51.738Z,101239.34
2019-05-11T04:18:20.161Z,101240.16
2019-05-11T04:20:48.697Z,101241.98
2019-05-11T04:23:17.120Z,101244.36
2019-05-11T04:25:45.614Z,101242.50
2019-05-11T04:28:14.522Z,101242.97
2019-05-11T04:30:42.984Z,101240.64
2019-05-11T04:33:11.413Z,101232.48
2019-05-11T04:35:39.871Z,101232.16
2019-05-11T04:38:08.492Z,101235.77
2019-05-11T04:40:36.930Z,101228.80
2019-05-11T04:43:05.395Z,101229.99
2019-05-11T04:45:33.813Z,101228.65
2019-05-11T04:48:02.249Z,101235.59
2019-05-11T04:50:30.792Z,101228.77
2019-05-11T04:52:59.210Z,101229.52
2019-05-11T04:55:27.666Z,101236.55
2019-05-11T04:57:56.271Z,101239.86
2019-05-11T05:00:24.976Z,101244.52
2019-05-11T05:02:53.414Z,101236.80
2019-05-11T05:05:22.130Z,101233.08
2019-05-11T05:07:50.837Z,101239.95
2019-05-11T05:10:20.544Z,101231.62
2019-05-11T05:12:51.519Z,101233.48
2019-05-11T05:15:19.904Z,101237.05
2019-05-11T05:17:48.317Z,101232.12
2019-05-11T05:20:17.149Z,101236.71
2019-05-11T05:22:45.833Z,101238.62
2019-05-11T05:25:14.255Z,101237.06
2019-05-11T05:27:42.846Z,101245.25
2019-05-11T05:30:12.091Z,101244.80
2019-05-11T05:32:40.516Z,101250.20
2019-05-11T05:35:09.308Z,101248.00
2019-05-11T05:37:37.728Z,101246.44
2019-05-11T05:40:06.886Z,101256.07
2019-05-11T05:42:36.992Z,101260.78
2019-05-11T05:45:07.467Z,101262.16
2019-05-11T05:47:35.892Z,101263.53
2019-05-11T05:50:06.344Z,101266.28
2019-05-11T05:52:34.765Z,101269.67
2019-05-11T05:55:04.074Z,101269.47
2019-05-11T05:57:32.850Z,101267.42
2019-05-11T06:00:01.355Z,101272.55
2019-05-11T06:02:29.754Z,101272.16
2019-05-11T06:04:58.705Z,101268.28
2019-05-11T06:07:27.176Z,101268.38
2019-05-11T06:09:55.585Z,101277.27
2019-05-11T06:12:24.130Z,101278.69
2019-05-11T06:14:52.552Z,101279.59
2019-05-11T06:17:21.054Z,101282.34
2019-05-11T06:19:49.606Z,101286.09
2019-05-11T06:22:18.028Z,101287.45
2019-05-11T06:24:46.471Z,101291.34
2019-05-11T06:27:14.932Z,101288.05
2019-05-11T06:29:46.431Z,101287.56
2019-05-11T06:32:14.892Z,101293.91
2019-05-11T06:34:43.431Z,101301.23
2019-05-11T06:37:12.238Z,101301.59
2019-05-11T06:39:40.798Z,101296.98
2019-05-11T06:42:09.299Z,101307.30
2019-05-11T06:44:37.722Z,101304.67
2019-05-11T06:47:06.161Z,101301.69
2019-05-11T06:49:34.604Z,101292.69
2019-05-11T06:52:03.040Z,101297.20
2019-05-11T06:54:31.464Z,101295.36
2019-05-11T06:57:00.100Z,101301.02
2019-05-11T06:59:28.502Z,101300.70
2019-05-11T07:01:57.010Z,101296.00
2019-05-11T07:04:25.536Z,101301.66
2019-05-11T07:06:54.275Z,101296.48
2019-05-11T07:09:22.699Z,101303.81
2019-05-11T07:11:51.414Z,101303.31
2019-05-11T07:14:21.453Z,101301.97
2019-05-11T07:16:50.120Z,101310.29
2019-05-11T07:19:18.658Z,101307.91
2019-05-11T07:21:47.104Z,101309.56
2019-05-11T07:24:15.694Z,101312.22
2019-05-11T07:26:44.325Z,101313.21
2019-05-11T07:29:12.954Z,101304.86
2019-05-11T07:31:41.398Z,101308.85
2019-05-11T07:34:09.849Z,101309.52
2019-05-11T07:36:38.911Z,101307.50
2019-05-11T07:39:09.618Z,101303.77
2019-05-11T07:41:38.953Z,101302.91
2019-05-11T07:44:09.804Z,101302.02
2019-05-11T07:46:37.775Z,101301.31
2019-05-11T07:49:08.744Z,101304.92
2019-05-11T07:51:38.726Z,101301.72
2019-05-11T07:54:08.410Z,101302.19
2019-05-11T07:56:39.118Z,101310.18
2019-05-11T07:59:07.990Z,101311.49
2019-05-11T08:01:38.716Z,101316.81
2019-05-11T08:04:07.787Z,101318.30
2019-05-11T08:06:38.904Z,101312.15
2019-05-11T08:09:08.343Z,101319.16
2019-05-11T08:11:38.886Z,101315.48
2019-05-11T08:14:07.843Z,101317.41
2019-05-11T08:16:38.677Z,101316.05
2019-05-11T08:19:10.038Z,101315.02
2019-05-11T08:21:38.828Z,101312.32
2019-05-11T08:24:09.130Z,101310.63
2019-05-11T08:26:38.590Z,101313.25
2019-05-11T08:29:08.101Z,101312.14
2019-05-11T08:31:38.423Z,101299.73
2019-05-11T08:34:08.836Z,101305.01
2019-05-11T08:36:37.945Z,101310.58
2019-05-11T08:39:07.943Z,101303.83
2019-05-11T08:41:38.458Z,101306.10
2019-05-11T08:44:08.920Z,101303.67
2019-05-11T08:46:38.595Z,101303.64
2019-05-11T08:49:08.690Z,101304.86
2019-05-11T08:51:38.601Z,101307.82
2019-05-11T08:54:08.999Z,101309.96
2019-05-11T08:56:38.244Z,101306.52
2019-05-11T08:59:07.995Z,101312.11
2019-05-11T09:01:39.343Z,101315.52
2019-05-11T09:04:08.952Z,101322.31
2019-05-11T09:06:37.820Z,101320.93
2019-05-11T09:09:09.006Z,101322.39
2019-05-11T09:11:38.907Z,101317.31
2019-05-11T09:14:08.400Z,101317.53
2019-05-11T09:16:38.351Z,101319.79
2019-05-11T09:19:08.781Z,101322.05
2019-05-11T09:21:38.267Z,101326.60
2019-05-11T09:24:08.491Z,101334.22
2019-05-11T09:26:38.935Z,101331.45
2019-05-11T09:29:08.661Z,101337.08
2019-05-11T09:31:38.381Z,101330.78
2019-05-11T09:34:08.938Z,101326.44
2019-05-11T09:36:38.925Z,101323.06
2019-05-11T09:39:08.651Z,101324.34
2019-05-11T09:41:38.299Z,101331.98
2019-05-11T09:44:08.910Z,101332.88
2019-05-11T09:46:38.473Z,101332.81
2019-05-11T09:49:08.021Z,101335.44
2019-05-11T09:51:38.075Z,101335.10
2019-05-11T09:54:07.900Z,101333.48
2019-05-11T09:56:38.149Z,101336.63
2019-05-11T09:59:08.869Z,101339.36
2019-05-11T10:01:37.863Z,101349.97
2019-05-11T10:04:09.022Z,101332.06
2019-05-11T10:06:39.292Z,101342.66
2019-05-11T10:09:08.366Z,101349.13
2019-05-11T10:11:39.808Z,101342.34
2019-05-11T10:14:08.481Z,101342.45
2019-05-11T10:16:38.603Z,101345.06
2019-05-11T10:19:08.536Z,101346.52
2019-05-11T10:21:38.442Z,101345.00
2019-05-11T10:24:08.520Z,101345.31
2019-05-11T10:26:38.446Z,101340.50
2019-05-11T10:29:07.881Z,101343.95
2019-05-11T10:31:38.563Z,101346.09
2019-05-11T10:34:08.638Z,101341.98
2019-05-11T10:36:38.553Z,101342.63
2019-05-11T10:39:08.598Z,101349.05
2019-05-11T10:41:38.739Z,101345.91
2019-05-11T10:44:08.210Z,101349.16
2019-05-11T10:46:38.071Z,101348.19
2019-05-11T10:49:08.253Z,101349.18
2019-05-11T10:51:38.302Z,101348.91
2019-05-11T10:54:08.762Z,101344.16
2019-05-11T10:56:38.831Z,101347.88
2019-05-11T10:59:08.987Z,101344.56
2019-05-11T11:01:38.189Z,101341.87
2019-05-11T11:04:07.796Z,101346.63
2019-05-11T11:06:38.493Z,101341.87
2019-05-11T11:09:08.985Z,101347.05
2019-05-11T11:11:38.210Z,101344.08
2019-05-11T11:14:08.731Z,101343.48
2019-05-11T11:16:42.452Z,101338.63
2019-05-11T11:19:07.698Z,101336.25
2019-05-11T11:21:38.348Z,101338.52
2019-05-11T11:24:07.638Z,101341.33
2019-05-11T11:26:37.999Z,101344.82
2019-05-11T11:29:08.611Z,101336.75
2019-05-11T11:31:37.974Z,101350.43
2019-05-11T11:34:08.299Z,101337.50
2019-05-11T11:36:37.644Z,101349.93
2019-05-11T11:39:08.374Z,101341.53
2019-05-11T11:41:37.879Z,101334.68
2019-05-11T11:44:07.849Z,101335.91
2019-05-11T11:46:51.390Z,101337.03
2019-05-11T11:49:09.064Z,101344.75
2019-05-11T11:51:37.926Z,101350.11
2019-05-11T11:54:08.540Z,101352.58
2019-05-11T11:56:38.031Z,101362.33
2019-05-11T11:59:08.494Z,101352.81
2019-05-11T12:01:38.513Z,101352.11
2019-05-11T12:04:08.294Z,101353.65
2019-05-11T12:06:38.574Z,101363.40
2019-05-11T12:09:08.955Z,101358.70
2019-05-11T12:11:38.194Z,101349.00
2019-05-11T12:14:08.727Z,101352.03
2019-05-11T12:16:38.874Z,101360.32
2019-05-11T12:19:08.661Z,101356.39
2019-05-11T12:21:37.957Z,101359.02
2019-05-11T12:24:08.115Z,101367.45
2019-05-11T12:26:38.859Z,101373.35
2019-05-11T12:29:09.515Z,101372.39
2019-05-11T12:31:38.098Z,101365.41
2019-05-11T12:34:08.691Z,101379.73
2019-05-11T12:36:38.726Z,101379.69
2019-05-11T12:39:08.491Z,101372.28
2019-05-11T12:41:38.718Z,101373.20
2019-05-11T12:44:08.267Z,101370.08
2019-05-11T12:46:39.375Z,101386.88
2019-05-11T12:49:08.044Z,101386.64
2019-05-11T12:51:38.247Z,101395.69
2019-05-11T12:54:08.290Z,101391.08
2019-05-11T12:56:38.282Z,101385.63
2019-05-11T12:59:08.283Z,101381.72
2019-05-11T13:01:38.155Z,101385.91
2019-05-11T13:04:08.932Z,101387.30
2019-05-11T13:06:38.522Z,101387.55
2019-05-11T13:09:08.119Z,101393.42
2019-05-11T13:11:37.971Z,101400.91
2019-05-11T13:14:07.998Z,101397.10
2019-05-11T13:16:37.816Z,101396.34
2019-05-11T13:19:08.345Z,101404.42
2019-05-11T13:21:38.286Z,101411.70
2019-05-11T13:24:08.596Z,101408.13
2019-05-11T13:26:37.989Z,101411.91
2019-05-11T13:29:07.768Z,101411.83
2019-05-11T13:31:38.391Z,101406.13
2019-05-11T13:34:08.394Z,101409.69
2019-05-11T13:36:38.208Z,101410.58
2019-05-11T13:39:08.898Z,101409.52
2019-05-11T13:41:38.335Z,101416.98
2019-05-11T13:44:08.045Z,101418.77
2019-05-11T13:46:38.700Z,101415.61
2019-05-11T13:49:08.579Z,101414.94
2019-05-11T13:51:38.824Z,101427.14
2019-05-11T13:54:08.030Z,101420.72
2019-05-11T13:56:37.982Z,101427.11
2019-05-11T13:59:10.749Z,101418.92
2019-05-11T14:01:39.489Z,101432.16
2019-05-11T14:04:08.710Z,101431.28
2019-05-11T14:06:38.255Z,101429.34
2019-05-11T14:09:08.435Z,101431.05
2019-05-11T14:11:39.066Z,101431.20
2019-05-11T14:14:07.883Z,101432.76
2019-05-11T14:16:37.862Z,101438.94
2019-05-11T14:19:08.671Z,101440.23
2019-05-11T14:21:38.533Z,101453.52
2019-05-11T14:24:07.961Z,101451.83
2019-05-11T14:26:38.628Z,101461.14
2019-05-11T14:29:08.470Z,101467.75
2019-05-11T14:31:38.704Z,101464.47
2019-05-11T14:34:08.882Z,101471.25
2019-05-11T14:36:38.723Z,101462.09
2019-05-11T14:39:08.360Z,101464.19
2019-05-11T14:41:38.084Z,101460.09
2019-05-11T14:44:08.939Z,101466.06
2019-05-11T14:46:38.426Z,101473.39
2019-05-11T14:49:07.901Z,101475.14
2019-05-11T14:51:38.863Z,101480.59
2019-05-11T14:54:08.154Z,101480.78
2019-05-11T14:56:41.525Z,101494.78
2019-05-11T14:59:10.098Z,101494.22
2019-05-11T15:01:38.543Z,101515.44
2019-05-11T15:04:09.118Z,101508.80
2019-05-11T15:06:38.613Z,101510.11
2019-05-11T15:09:08.556Z,101518.74
2019-05-11T15:11:38.890Z,101518.80
2019-05-11T15:14:08.154Z,101522.92
2019-05-11T15:16:38.330Z,101522.53
2019-05-11T15:19:08.030Z,101519.91
2019-05-11T15:21:38.735Z,101521.03
2019-05-11T15:24:09.070Z,101522.80
2019-05-11T15:26:38.085Z,101528.16
2019-05-11T15:29:08.148Z,101532.70
2019-05-11T15:31:38.061Z,101527.46
2019-05-11T15:34:08.523Z,101529.53
2019-05-11T15:36:38.759Z,101534.41
2019-05-11T15:39:07.899Z,101535.55
2019-05-11T15:41:38.584Z,101531.84
2019-05-11T15:44:11.367Z,101544.66
2019-05-11T15:46:38.733Z,101542.45
2019-05-11T15:49:08.859Z,101546.55
2019-05-11T15:51:41.084Z,101546.72
2019-05-11T15:54:08.096Z,101550.66
2019-05-11T15:56:38.528Z,101563.34
2019-05-11T15:59:08.686Z,101562.80
2019-05-11T16:01:38.316Z,101573.05
2019-05-11T16:04:09.126Z,101570.05
2019-05-11T16:06:37.600Z,101569.32
2019-05-11T16:09:08.449Z,101576.18
2019-05-11T16:11:38.788Z,101585.06
2019-05-11T16:14:08.729Z,101586.77
2019-05-11T16:16:39.109Z,101584.02
2019-05-11T16:19:13.890Z,101582.72
2019-05-11T16:21:38.729Z,101582.58
2019-05-11T16:24:07.926Z,101583.44
2019-05-11T16:26:36.822Z,101590.95
2019-05-11T16:29:05.228Z,101590.81
2019-05-11T16:31:33.731Z,101593.37
2019-05-11T16:34:02.865Z,101596.20
2019-05-11T16:36:31.290Z,101601.56
2019-05-11T16:38:59.842Z,101609.20
2019-05-11T16:41:29.137Z,101618.88
2019-05-11T16:43:58.560Z,101620.66
2019-05-11T16:46:28.336Z,101620.63
2019-05-11T16:48:57.868Z,101617.91
2019-05-11T16:51:28.415Z,101628.08
2019-05-11T16:53:58.774Z,101625.16
2019-05-11T16:56:27.121Z,101625.02
2019-05-11T16:58:55.559Z,101626.59
2019-05-11T17:01:24.010Z,101634.58
2019-05-11T17:03:52.632Z,101637.09
2019-05-11T17:06:21.247Z,101636.47
2019-05-11T17:08:50.024Z,101641.03
2019-05-11T17:11:18.806Z,101637.45
2019-05-11T17:13:48.344Z,101643.05
2019-05-11T17:16:17.918Z,101649.91
2019-05-11T17:18:48.309Z,101655.20
2019-05-11T17:21:18.360Z,101661.99
2019-05-11T17:23:48.803Z,101668.83
2019-05-11T17:26:18.980Z,101665.98
2019-05-11T17:28:48.919Z,101673.20
2019-05-11T17:31:18.827Z,101678.71
2019-05-11T17:33:47.858Z,101686.99
2019-05-11T17:36:18.509Z,101692.73
2019-05-11T17:38:47.879Z,101683.91
2019-05-11T17:41:16.697Z,101684.91
2019-05-11T17:43:45.129Z,101691.88
2019-05-11T17:46:13.663Z,101710.27
2019-05-11T17:48:42.348Z,101700.94
2019-05-11T17:51:21.376Z,101710.10
2019-05-11T17:53:40.940Z,101710.28
2019-05-11T17:56:09.630Z,101723.72
2019-05-11T17:58:38.119Z,101723.55
2019-05-11T18:01:09.331Z,101718.69
2019-05-11T18:03:38.591Z,101725.86
2019-05-11T18:06:08.446Z,101730.62
2019-05-11T18:08:37.094Z,101733.84
2019-05-11T18:11:08.207Z,101738.20
2019-05-11T18:13:35.917Z,101736.36
2019-05-11T18:16:04.339Z,101742.02
2019-05-11T18:18:32.921Z,101750.55
2019-05-11T18:21:01.383Z,101756.96
2019-05-11T18:23:30.082Z,101765.28
2019-05-11T18:25:58.990Z,101764.58
2019-05-11T18:28:29.186Z,101764.27
2019-05-11T18:30:58.355Z,101770.50
2019-05-11T18:33:27.683Z,101777.16
2019-05-11T18:35:58.565Z,101784.42
2019-05-11T18:38:27.617Z,101788.16
2019-05-11T18:40:58.038Z,101785.95
2019-05-11T18:43:28.065Z,101790.52
2019-05-11T18:45:58.122Z,101798.38
2019-05-11T18:48:28.878Z,101813.88
2019-05-11T18:50:58.902Z,101813.34
2019-05-11T18:53:28.930Z,101824.98
2019-05-11T18:55:58.979Z,101827.00
2019-05-11T18:58:27.988Z,101832.70
2019-05-11T19:00:56.727Z,101842.05
2019-05-11T19:03:25.289Z,101841.16
2019-05-11T19:05:53.792Z,101851.25
2019-05-11T19:08:22.212Z,101862.02
2019-05-11T19:10:50.756Z,101865.73
2019-05-11T19:13:29.472Z,101867.10
2019-05-11T19:15:49.336Z,101871.80
2019-05-11T19:18:17.961Z,101871.52
2019-05-11T19:20:49.335Z,101889.61
2019-05-11T19:23:19.014Z,101899.66
2019-05-11T19:25:48.016Z,101911.04
2019-05-11T19:28:18.511Z,101907.73
2019-05-11T19:30:48.829Z,101924.96
2019-05-11T19:33:19.002Z,101928.30
2019-05-11T19:35:48.111Z,101935.13
2019-05-11T19:38:18.833Z,101931.30
2019-05-11T19:40:48.396Z,101941.65
2019-05-11T19:43:18.561Z,101948.84
2019-05-11T19:45:48.631Z,101954.03
2019-05-11T19:48:17.230Z,101948.81
2019-05-11T19:50:59.850Z,101956.84
2019-05-11T19:53:15.805Z,101963.94
2019-05-11T19:55:44.462Z,101959.76
2019-05-11T19:58:13.149Z,101966.08
2019-05-11T20:00:41.594Z,101969.73
2019-05-11T20:03:10.112Z,101974.73
2019-05-11T20:05:38.775Z,101983.70
2019-05-11T20:08:07.924Z,101990.34
2019-05-11T20:10:38.370Z,101994.30
2019-05-11T20:13:07.941Z,102000.30
2019-05-11T20:15:38.168Z,102005.59
2019-05-11T20:18:07.936Z,102008.20
2019-05-11T20:20:37.660Z,102004.47
2019-05-11T20:23:07.828Z,102011.97
2019-05-11T20:25:37.989Z,102008.11
2019-05-11T20:28:06.612Z,102015.05
2019-05-11T20:30:36.056Z,102011.84
2019-05-11T20:33:04.881Z,102021.00
2019-05-11T20:35:33.312Z,102015.98
2019-05-11T20:38:01.729Z,102020.28
2019-05-11T20:40:30.209Z,102021.23
2019-05-11T20:42:58.883Z,102024.08
2019-05-11T20:45:28.577Z,102023.56
2019-05-11T20:47:57.477Z,102040.00
2019-05-11T20:50:25.991Z,102040.78
2019-05-11T20:52:54.431Z,102039.70
2019-05-11T20:55:23.389Z,102051.63
2019-05-11T20:57:52.173Z,102043.19
2019-05-11T21:00:21.437Z,102052.27
2019-05-11T21:02:50.201Z,102054.41
2019-05-11T21:05:18.770Z,102052.03
2019-05-11T21:07:47.213Z,102066.00
2019-05-11T21:10:16.564Z,102071.92
2019-05-11T21:12:45.013Z,102079.53
2019-05-11T21:15:15.094Z,102087.16
2019-05-11T21:17:43.531Z,102092.73
2019-05-11T21:20:12.759Z,102088.97
2019-05-11T21:22:41.183Z,102086.53
2019-05-11T21:25:10.847Z,102088.45
2019-05-11T21:27:39.274Z,102096.70
2019-05-11T21:30:09.726Z,102091.95
2019-05-11T21:32:40.137Z,102088.53
2019-05-11T21:35:09.475Z,102102.77
2019-05-11T21:37:39.087Z,102099.69
2019-05-11T21:40:09.022Z,102106.79
2019-05-11T21:42:38.918Z,102117.53
2019-05-11T21:45:10.016Z,102123.77
2019-05-11T21:47:39.626Z,102125.39
2019-05-11T21:50:09.731Z,102127.34
2019-05-11T21:52:38.940Z,102126.65
2019-05-11T21:55:09.771Z,102132.53
2019-05-11T21:57:38.380Z,102135.75
2019-05-11T22:00:09.158Z,102141.16
2019-05-11T22:02:38.561Z,102142.92
2019-05-11T22:05:09.664Z,102154.12
2019-05-11T22:07:41.605Z,102151.03
2019-05-11T22:10:09.458Z,102154.32
2019-05-11T22:12:39.015Z,102155.30
2019-05-11T22:15:11.609Z,102157.61
2019-05-11T22:17:40.359Z,102157.41
2019-05-11T22:20:09.722Z,102153.11
2019-05-11T22:22:38.895Z,102156.35
2019-05-11T22:25:09.325Z,102163.67
2019-05-11T22:27:38.866Z,102166.75
2019-05-11T22:30:08.642Z,102166.55
2019-05-11T22:32:38.298Z,102168.41
2019-05-11T22:35:08.249Z,102179.05
2019-05-11T22:37:38.616Z,102183.96
2019-05-11T22:40:08.449Z,102187.86
2019-05-11T22:42:37.016Z,102188.12
2019-05-11T22:45:10.315Z,102191.77
2019-05-11T22:47:39.568Z,102194.89
2019-05-11T22:50:10.035Z,102197.20
2019-05-11T22:52:40.308Z,102198.94
2019-05-11T22:55:11.753Z,102201.51
2019-05-11T22:57:40.384Z,102201.42
2019-05-11T23:00:10.911Z,102203.98
2019-05-11T23:02:39.501Z,102209.59
2019-05-11T23:05:09.015Z,102206.48
2019-05-11T23:07:41.201Z,102209.41
2019-05-11T23:10:09.256Z,102207.37
2019-05-11T23:12:38.588Z,102207.48
2019-05-11T23:15:12.418Z,102209.67
2019-05-11T23:17:41.126Z,102218.61
2019-05-11T23:20:10.980Z,102223.21
2019-05-11T23:22:57.011Z,102226.48
2019-05-11T23:25:18.673Z,102236.04
2019-05-11T23:27:48.585Z,102224.70
2019-05-11T23:30:19.767Z,102233.64
2019-05-11T23:32:48.762Z,102238.60
2019-05-11T23:35:18.882Z,102236.20
2019-05-11T23:37:49.489Z,102241.16
2019-05-11T23:40:19.754Z,102241.41
2019-05-11T23:42:49.217Z,102240.02
2019-05-11T23:45:19.034Z,102245.33
2019-05-11T23:47:49.014Z,102253.05
2019-05-11T23:50:18.840Z,102251.98
2019-05-11T23:52:50.278Z,102260.20
2019-05-11T23:55:19.245Z,102266.27
2019-05-11T23:57:48.566Z,102267.49
